• Join FlightAware (Why Join?)
  • Login
  • US Flag GB Flag 
20:11 EST


 

Airport Tracker/Info


-or-


 

Live Flight TrackerFlight Track Log ✈ DAL6225 ✈ 26-Apr-2013 ✈ KMSN - KLGA

Flight Track Log - Related Links

Times and Time Zones

All times are in EDT time to prevent confusion due to time zone crossing. See the DAL6225 flight status page for this flight to view local times or setup timezone preferences in your user account.

Time Position Orientation Groundspeed Altitude Reporting Facility
EDT Latitude Longitude Course Direction KTS MPH feet Rate Location/Type
08:34 43.1100 -89.3278 90° East 135 155 2,700  Level Chicago Center
08:35 43.0772 -89.2639 125° Southeast 192 221 3,900 1,800 Climbing Chicago Center
08:36 43.0681 -89.1558 97° East 266 306 6,400 2,580 Climbing Chicago Center
08:37 43.0761 -89.0419 84° East 298 343 9,300 2,340 Climbing Chicago Center
08:38 43.1167 -88.4230 90° East  Level FlightAware Approximate
08:38 43.0833 -88.9203 85° East 318 366 11,300  Level Chicago Center
08:39 43.1167 -88.2708 90° East  Level FlightAware Approximate
08:39 43.0917 -88.7628 86° East 354 407 13,600  Level Chicago Center
08:40 43.0994 -88.6200 86° East 372 428 15,500 1,920 Climbing Chicago Center
08:41 43.1061 -88.4717 86° East 390 449 17,600 1,560 Climbing Chicago Center
08:42 43.1142 -88.3206 86° East 397 457 18,700 1,320 Climbing Chicago Center
08:43 43.1217 -88.1631 86° East 411 473 20,400 1,500 Climbing Chicago Center
08:44 43.1319 -87.9731 86° East 429 494 21,900 1,500 Climbing Chicago Center
08:45 43.1392 -87.8053 87° East 441 507 23,500 1,260 Climbing Chicago Center
08:46 43.1475 -87.6342 86° East 450 518 24,600 1,020 Climbing Chicago Center
08:47 43.1544 -87.4583 87° East 462 532 25,600 960 Climbing Chicago Center
08:48 43.1625 -87.2764 86° East 477 549 26,600 960 Climbing Chicago Center
08:49 43.1697 -87.0922 87° East 484 557 27,700 900 Climbing Chicago Center
08:50 43.1761 -86.9061 87° East 491 565 28,500 840 Climbing Chicago Center
08:51 43.1833 -86.7161 87° East 497 572 29,500 1,020 Climbing Chicago Center
08:52 43.1914 -86.4878 87° East 502 578 30,700 960 Climbing Chicago Center
08:53 43.1986 -86.2975 87° East 498 573 31,500 540 Climbing Chicago Center
08:54 43.2044 -86.0964 88° East 508 585 31,900 480 Climbing Chicago Center
08:55 43.2106 -85.8989 88° East 513 590 32,500 600 Climbing Chicago Center
08:56 43.2158 -85.6986 88° East 518 596 33,200 780 Climbing Chicago Center
08:57 43.2211 -85.5036 88° East 514 592 34,200 840 Climbing Chicago Center
08:58 43.2258 -85.3097 88° East 509 586 35,000 360 Climbing Chicago Center
08:59 43.2300 -85.1131 88° East 514 592 35,000  Level Chicago Center
09:00 43.2325 -84.9433 89° East 521 600 35,000  Level Cleveland Center
09:01 43.2353 -84.7556 89° East 514 592 35,000  Level Cleveland Center
09:02 43.2378 -84.5617 89° East 507 583 35,000  Level Cleveland Center
09:03 43.2422 -84.3653 88° East 507 583 35,000  Level Cleveland Center
09:04 43.2464 -84.1717 88° East 507 583 35,000  Level Cleveland Center
09:05 43.2458 -83.9806 90° East 507 583 35,000  Level Cleveland Center
09:06 43.2489 -83.8097 89° East 500 575 35,000  Level Cleveland Center
09:07 43.2497 -83.6158 90° East 500 575 35,000  Level Cleveland Center
09:08 43.2528 -83.4167 89° East 505 581 35,000  Level Cleveland Center
09:09 43.2531 -83.2283 90° East 505 581 35,000  Level Cleveland Center
09:10 43.2553 -83.0317 89° East 505 581 35,000  Level Cleveland Center
09:11 43.2550 -82.8408 90° East 505 581 35,000  Level Cleveland Center
09:12 43.2503 -82.6497 92° East 498 573 35,000  Level Cleveland Center
09:13 43.2333 -82.4000 95° East 500 575 35,000  Level Toronto Center
09:14 43.2167 -82.2167 97° East 510 587 35,000  Level Toronto Center
09:15 43.2000 -82.0167 96° East 510 587 35,000  Level Toronto Center
09:16 43.2000 -81.8333 90° East 510 587 35,000  Level Toronto Center
09:17 43.1667 -81.6167 102° East 500 575 35,000  Level Toronto Center
09:18 43.1667 -81.4667 90° East 500 575 35,000  Level Toronto Center
09:19 43.1333 -81.2500 102° East 500 575 35,000  Level Toronto Center
09:20 43.1167 -81.0667 97° East 500 575 35,000  Level Toronto Center
09:21 43.1000 -80.8667 96° East 500 575 35,000  Level Toronto Center
09:22 43.1000 -80.6833 90° East 500 575 35,000  Level Toronto Center
09:23 43.0833 -80.5167 98° East 500 575 35,000 -180 Level Toronto Center
09:24 43.0833 -80.3167 90° East 500 575 34,700 -960 Descending Toronto Center
09:25 43.0500 -80.1333 104° East 500 575 33,100 -1,500 Descending Toronto Center
09:26 43.0333 -79.9500 97° East 490 564 31,700 -1,500 Descending Toronto Center
09:27 43.0167 -79.7500 96° East 500 575 30,100 -1,500 Descending Toronto Center
09:28 43.0000 -79.5667 97° East 500 575 28,700 -1,500 Descending Toronto Center
09:29 42.9833 -79.3833 97° East 490 564 27,100 -900 Descending Toronto Center
09:30 42.9833 -79.2000 90° East 480 552 27,000 -60 Descending Toronto Center
09:31 42.9667 -79.0167 97° East 490 564 27,000  Level Toronto Center
09:32 42.9500 -78.8333 97° East 480 552 27,000  Level Toronto Center
09:33 42.9422 -78.7881 103° East 483 556 27,000 -300 Level Cleveland Center
09:34 42.9247 -78.6069 97° East 483 556 26,600 -1,020 Descending Cleveland Center
09:35 42.9069 -78.4261 98° East 483 556 25,000 -1,440 Descending Cleveland Center
09:36 42.8889 -78.2511 98° East 483 556 23,800 -1,200 Descending Cleveland Center
09:37 42.8706 -78.0733 98° East 478 550 22,700 -1,080 Descending Cleveland Center
09:38 42.8522 -77.9011 98° East 473 544 21,700 -900 Descending Cleveland Center
09:39 42.8336 -77.7292 98° East 461 531 21,000 -360 Descending Cleveland Center
09:40 42.8128 -77.5661 100° East 454 522 21,000  Level Cleveland Center
09:41 42.7850 -77.3892 102° East 442 509 21,000  Level Cleveland Center
09:42 42.7333 -77.1167 104° East 440 506 21,000  Level Toronto Center
09:43 42.7353 -77.0258 88° East 441 507 21,000  Level Boston Center
09:44 42.7106 -76.8600 101° East 441 507 21,000  Level Boston Center
09:45 42.6878 -76.6917 100° East 441 507 21,000  Level Boston Center
09:46 42.6575 -76.4892 101° East 447 514 21,000  Level Boston Center
09:47 42.6322 -76.3236 102° East 447 514 21,000  Level Boston Center
09:48 42.6117 -76.1869 102° East 452 520 21,000  Level Boston Center
09:49 42.5825 -75.9878 101° East 452 520 21,000  Level Boston Center
09:50 42.5567 -75.8169 102° East 452 520 21,000  Level Boston Center
09:51 42.5322 -75.6494 101° East 452 520 21,000  Level Boston Center
09:52 42.5056 -75.4819 102° East 452 520 21,000 -480 Level Boston Center
09:53 42.4750 -75.2947 102° East 458 527 20,100 -960 Descending Boston Center
09:54 42.4306 -75.1461 112° Southeast 444 511 19,100 -1,020 Descending Boston Center
09:55 42.3797 -75.0033 116° Southeast 426 490 18,100 -600 Descending Boston Center
09:56 42.3267 -74.8636 117° Southeast 421 484 18,000 -60 Descending Boston Center
09:57 42.2753 -74.7242 116° Southeast 421 484 18,000  Level Boston Center
09:58 42.2239 -74.5850 116° Southeast 416 479 18,000  Level Boston Center
09:59 42.1700 -74.4458 118° Southeast 416 479 18,000  Level Boston Center
10:00 42.1183 -74.3014 116° Southeast 416 479 18,000  Level Boston Center
10:01 42.0558 -74.1681 122° Southeast 416 479 18,000 -120 Level Boston Center
10:02 42.0114 -74.0803 124° Southeast 416 479 17,800 -840 Descending Boston Center
10:03 41.9281 -73.9133 124° Southeast 416 479 16,400 -900 Descending Boston Center
10:04 41.8564 -73.8281 138° Southeast 393 452 16,000 -600 Descending Boston Center
10:05 41.7397 -73.8228 178° South 361 415 15,300 -1,020 Descending Boston Center
10:06 41.6500 -73.8181 178° South 366 421 14,000 -1,620 Descending Boston Center
10:07 41.5833 -73.8167 179° South 368 423 12,900 -1,860 Descending New York TRACON
10:08 41.4833 -73.8000 173° South 341 392 11,200 -1,560 Descending New York TRACON
10:09 41.4000 -73.8000 180° South 279 321 9,800 -1,500 Descending New York TRACON
10:10 41.3333 -73.7833 169° South 268 308 8,200 -900 Descending New York TRACON
10:11 41.2667 -73.7333 151° Southeast 278 320 8,000 -120 Descending New York TRACON
10:12 41.2000 -73.6667 143° Southeast 280 322 8,000  Level New York TRACON
10:13 41.1500 -73.6167 143° Southeast 285 328 8,000 -780 Level New York TRACON
10:14 41.0667 -73.5833 163° South 278 320 6,500 -1,440 Descending New York TRACON
10:15 40.9833 -73.5667 171° South 275 316 5,000 -1,260 Descending New York TRACON
10:16 40.9333 -73.5833 194° South 259 298 4,000 -540 Descending New York TRACON
10:17 40.8833 -73.6333 217° Southwest 257 296 4,000  Level New York TRACON
10:18 40.8167 -73.7167 223° Southwest 251 289 4,000  Level New York TRACON
10:19 40.8000 -73.7833 252° West 244 281 4,000  Level New York TRACON
10:20 40.7833 -73.8667 255° West 180 207 4,000  Level New York TRACON
10:21 40.7667 -73.9167 246° West 183 211 4,000  Level New York TRACON
10:22 40.7667 -73.9833 270° West 181 208 4,000  Level New York TRACON
10:23 40.7333 -74.0500 237° Southwest 187 215 4,000  Level New York TRACON
10:24 40.6833 -74.0667 194° South 186 214 4,000  Level New York TRACON
10:25 40.6333 -74.1000 207° Southwest 179 206 4,000  Level New York TRACON